Time;durP1;ratioP1;P1;durP2;ratioP2;P2;SDS_P1;SDS_P2;PMS_P1;PMS_P2;Temp;Humidity;BMP_temperature;BMP_pressure;BME280_temperature;BME280_humidity;BME280_pressure;Samples;Min_cycle;Max_cycle;Signal;HPM_P1;HPM_P2
2023/01/13 00:02:16;;;;;;;2.10;0.70;;;10.10;99.90;;;;;;5011266;28;20257;-41
2023/01/13 00:04:41;;;;;;;2.70;0.70;;;10.10;99.90;;;;;;5026161;28;20228;-44
2023/01/13 00:07:07;;;;;;;1.50;0.60;;;10.20;99.90;;;;;;5020838;28;20191;-43
2023/01/13 00:09:33;;;;;;;1.43;0.87;;;10.20;99.90;;;;;;4994818;28;20185;-43
2023/01/13 00:11:59;;;;;;;2.47;0.83;;;10.20;99.90;;;;;;4994639;28;20192;-42
2023/01/13 00:14:25;;;;;;;0.80;0.70;;;10.10;99.90;;;;;;4995040;28;20199;-43
2023/01/13 00:16:51;;;;;;;1.83;0.80;;;10.10;99.90;;;;;;5012665;28;20180;-43
2023/01/13 00:19:17;;;;;;;1.87;0.80;;;10.10;99.90;;;;;;4994747;28;20183;-43
2023/01/13 00:21:43;;;;;;;3.00;0.80;;;10.20;99.90;;;;;;4997842;28;20179;-41
2023/01/13 00:24:09;;;;;;;2.20;0.70;;;10.10;99.90;;;;;;5007377;28;20207;-43
2023/01/13 00:26:35;;;;;;;2.27;0.77;;;10.20;99.90;;;;;;5010867;28;20175;-42
2023/01/13 00:29:01;;;;;;;2.97;0.83;;;10.20;99.90;;;;;;4994522;28;20202;-43
2023/01/13 00:31:29;;;;;;;2.20;0.80;;;10.10;99.90;;;;;;4994509;28;20187;-43
2023/01/13 00:33:59;;;;;;;2.60;0.80;;;10.10;99.90;;;;;;5011763;28;20262;-43
2023/01/13 00:36:25;;;;;;;1.33;0.67;;;10.10;99.90;;;;;;5010960;28;20167;-43
2023/01/13 00:38:51;;;;;;;0.90;0.70;;;10.10;99.90;;;;;;4994066;28;20179;-43
2023/01/13 00:41:20;;;;;;;1.90;0.70;;;10.10;99.90;;;;;;5012055;28;20175;-42
2023/01/13 00:43:47;;;;;;;0.97;0.60;;;10.20;99.90;;;;;;4994483;28;20290;-41
2023/01/13 00:46:15;;;;;;;2.10;0.60;;;10.20;99.90;;;;;;4994647;28;20176;-44
2023/01/13 00:48:41;;;;;;;0.53;0.53;;;10.30;99.90;;;;;;5011852;28;20191;-43
2023/01/13 00:51:16;;;;;;;0.70;0.70;;;10.20;99.90;;;;;;4993929;28;20249;-43
2023/01/13 00:53:44;;;;;;;1.30;0.60;;;10.20;99.90;;;;;;5003035;28;20210;-43
2023/01/13 00:56:22;;;;;;;1.73;0.87;;;10.30;99.90;;;;;;4994287;28;20185;-43
2023/01/13 00:58:48;;;;;;;0.63;0.50;;;10.30;99.90;;;;;;5010256;28;20183;-43
2023/01/13 01:01:20;;;;;;;0.77;0.60;;;10.30;99.90;;;;;;4994350;28;20242;-43
2023/01/13 01:03:47;;;;;;;3.23;0.90;;;10.30;99.90;;;;;;4993512;28;20223;-43
2023/01/13 01:06:19;;;;;;;2.40;0.70;;;10.30;99.90;;;;;;4993449;28;20188;-43
2023/01/13 01:08:45;;;;;;;1.93;0.90;;;10.20;99.90;;;;;;4993770;28;20215;-43
2023/01/13 01:11:20;;;;;;;2.23;0.80;;;10.20;99.90;;;;;;5009262;28;20183;-43
2023/01/13 01:13:46;;;;;;;4.00;0.80;;;10.20;99.90;;;;;;4993662;28;20214;-43
2023/01/13 01:16:14;;;;;;;1.43;0.70;;;10.20;99.90;;;;;;5011472;28;20171;-43
2023/01/13 01:18:43;;;;;;;4.03;1.10;;;10.30;99.90;;;;;;4993793;28;20222;-43
2023/01/13 01:21:10;;;;;;;2.00;1.00;;;10.30;99.90;;;;;;5009884;28;20273;-43
2023/01/13 01:23:37;;;;;;;1.00;0.80;;;10.30;99.90;;;;;;5004191;28;20706;-43
2023/01/13 01:26:15;;;;;;;2.40;0.93;;;10.30;99.90;;;;;;5011714;28;20234;-43
2023/01/13 01:28:42;;;;;;;1.67;0.80;;;10.30;99.90;;;;;;5011151;28;20195;-44
2023/01/13 01:31:12;;;;;;;0.60;0.60;;;10.30;99.90;;;;;;4993269;28;20191;-43
2023/01/13 01:33:39;;;;;;;2.73;1.00;;;10.40;99.90;;;;;;4993571;28;20216;-43
2023/01/13 01:36:06;;;;;;;2.07;0.90;;;10.40;99.90;;;;;;5011178;28;20176;-43
2023/01/13 01:38:32;;;;;;;2.00;0.70;;;10.40;99.90;;;;;;5011389;28;20267;-43
2023/01/13 01:40:58;;;;;;;2.73;0.70;;;10.40;99.90;;;;;;5009698;28;20262;-43
2023/01/13 01:44:06;;;;;;;1.27;0.73;;;10.40;99.90;;;;;;4993936;28;20562;-43
2023/01/13 01:46:35;;;;;;;1.23;0.73;;;10.40;99.90;;;;;;4972417;28;20184;-44
2023/01/13 01:49:17;;;;;;;3.00;0.80;;;10.40;99.90;;;;;;5009407;28;20210;-43
2023/01/13 01:51:48;;;;;;;1.43;0.70;;;10.30;99.90;;;;;;4991165;28;20178;-42
2023/01/13 01:54:23;;;;;;;1.57;0.77;;;10.30;99.90;;;;;;5026396;28;20210;-42
2023/01/13 01:56:49;;;;;;;1.13;0.73;;;10.30;99.90;;;;;;4994310;28;20180;-43
2023/01/13 01:59:15;;;;;;;0.83;0.70;;;10.30;99.90;;;;;;4994235;28;20172;-43
2023/01/13 02:01:42;;;;;;;2.30;0.87;;;10.20;99.90;;;;;;4996875;28;20275;-43
2023/01/13 02:04:17;;;;;;;0.97;0.70;;;10.20;99.90;;;;;;4997478;28;20195;-43
2023/01/13 02:06:46;;;;;;;1.80;1.00;;;10.10;99.90;;;;;;5014696;28;20180;-42
2023/01/13 02:09:12;;;;;;;1.97;0.90;;;10.20;99.90;;;;;;5015029;28;20183;-43
2023/01/13 02:14:26;;;;;;;2.90;1.00;;;10.30;99.90;;;;;;5014874;28;20237;-43
2023/01/13 02:17:16;;;;;;;1.03;0.83;;;10.30;99.90;;;;;;5013500;28;20245;-43
2023/01/13 02:20:07;;;;;;;1.00;0.77;;;10.30;99.90;;;;;;5012943;28;20186;-43
2023/01/13 02:22:44;;;;;;;1.70;0.80;;;10.30;99.90;;;;;;5022535;28;20209;-43
2023/01/13 02:25:39;;;;;;;1.60;0.70;;;10.30;99.90;;;;;;5019357;28;20191;-43
2023/01/13 02:28:37;;;;;;;2.07;0.70;;;10.30;99.90;;;;;;5009975;28;20194;-43
2023/01/13 02:34:08;;;;;;;1.93;0.77;;;10.20;99.90;;;;;;5012817;28;20219;-43
2023/01/13 02:36:57;;;;;;;1.10;0.77;;;10.20;99.90;;;;;;4997054;28;20253;-43
2023/01/13 02:39:57;;;;;;;2.00;0.60;;;10.20;99.90;;;;;;5013950;28;20188;-43
2023/01/13 02:45:22;;;;;;;3.87;1.27;;;10.20;99.90;;;;;;4993597;28;20188;-43
2023/01/13 02:47:50;;;;;;;1.17;0.73;;;10.20;99.90;;;;;;4977766;28;20206;-43
2023/01/13 02:50:19;;;;;;;3.87;1.07;;;10.20;99.90;;;;;;4994194;28;20199;-42
2023/01/13 02:52:57;;;;;;;1.80;0.50;;;10.20;99.90;;;;;;5003105;28;20269;-41
2023/01/13 02:55:40;;;;;;;1.27;0.57;;;10.30;99.90;;;;;;5031219;28;20217;-41
2023/01/13 02:58:11;;;;;;;1.50;0.70;;;10.20;99.90;;;;;;5030609;28;20178;-41
2023/01/13 03:00:37;;;;;;;0.80;0.50;;;10.30;99.90;;;;;;4996154;28;20187;-41
2023/01/13 03:03:03;;;;;;;1.10;0.60;;;10.30;99.90;;;;;;5013744;28;20206;-41
2023/01/13 03:05:32;;;;;;;0.70;0.50;;;10.20;99.90;;;;;;4996521;28;20184;-41
2023/01/13 03:08:30;;;;;;;1.27;0.70;;;10.20;99.90;;;;;;4996203;28;20175;-39
2023/01/13 03:11:07;;;;;;;3.40;0.93;;;10.20;99.90;;;;;;4994405;28;20195;-42
2023/01/13 03:14:05;;;;;;;3.93;0.77;;;10.20;99.90;;;;;;4980202;28;20211;-41
2023/01/13 03:16:46;;;;;;;0.80;0.50;;;10.10;99.90;;;;;;4988152;28;20253;-41
2023/01/13 03:19:36;;;;;;;0.90;0.73;;;10.10;99.90;;;;;;4995662;28;20186;-41
2023/01/13 03:22:16;;;;;;;2.10;0.60;;;10.00;99.90;;;;;;5001933;28;20178;-41
2023/01/13 03:24:59;;;;;;;2.20;0.80;;;10.00;99.90;;;;;;5023417;28;20197;-40
2023/01/13 03:27:34;;;;;;;2.07;0.70;;;9.90;99.90;;;;;;5020366;28;20259;-41
2023/01/13 03:30:31;;;;;;;1.00;0.60;;;10.00;99.90;;;;;;4995583;28;20191;-42
2023/01/13 03:33:24;;;;;;;1.23;0.57;;;10.00;99.90;;;;;;5012125;28;20222;-41
2023/01/13 03:35:54;;;;;;;1.37;0.53;;;10.00;99.90;;;;;;5013264;28;20199;-41
2023/01/13 03:38:36;;;;;;;2.37;0.70;;;10.00;99.90;;;;;;5011899;28;20247;-41
2023/01/13 03:41:09;;;;;;;1.20;0.57;;;10.00;99.90;;;;;;4995744;28;20184;-40
2023/01/13 03:46:51;;;;;;;0.83;0.50;;;10.00;99.90;;;;;;5012911;28;20538;-41
2023/01/13 03:49:21;;;;;;;2.20;0.97;;;10.00;99.90;;;;;;5012785;28;20183;-41
2023/01/13 03:51:53;;;;;;;1.30;0.60;;;10.00;99.90;;;;;;5013354;28;20195;-41
2023/01/13 03:54:22;;;;;;;1.67;0.70;;;9.90;99.90;;;;;;5005033;28;20212;-39
2023/01/13 03:56:53;;;;;;;1.33;0.80;;;9.90;99.90;;;;;;4995408;28;20180;-41
2023/01/13 03:59:24;;;;;;;2.43;0.83;;;10.00;99.90;;;;;;4995203;28;20179;-40
2023/01/13 04:02:01;;;;;;;1.10;0.80;;;9.90;99.90;;;;;;5011643;28;20179;-43
2023/01/13 04:04:51;;;;;;;1.87;0.60;;;9.90;99.90;;;;;;5011358;28;20195;-42
2023/01/13 04:07:31;;;;;;;1.90;0.80;;;9.90;99.90;;;;;;5012547;28;20202;-41
2023/01/13 04:10:01;;;;;;;1.53;0.60;;;9.90;99.90;;;;;;4994997;28;20175;-41
2023/01/13 04:15:19;;;;;;;0.83;0.80;;;9.90;99.90;;;;;;4999154;28;20258;-41
2023/01/13 04:17:45;;;;;;;2.90;0.90;;;10.00;99.90;;;;;;4993029;28;20215;-42
2023/01/13 04:20:11;;;;;;;1.27;0.97;;;9.90;99.90;;;;;;4996822;28;20690;-42
2023/01/13 04:22:37;;;;;;;2.40;0.97;;;9.90;99.90;;;;;;5019994;28;20344;-42
2023/01/13 04:25:03;;;;;;;1.03;0.70;;;9.90;99.90;;;;;;5022233;28;20707;-41
2023/01/13 04:27:29;;;;;;;1.83;0.60;;;9.90;99.90;;;;;;4994523;28;20183;-41
2023/01/13 04:29:55;;;;;;;3.40;1.90;;;9.90;99.90;;;;;;5010749;28;20267;-40
2023/01/13 04:32:21;;;;;;;4.50;2.50;;;9.90;99.90;;;;;;5012387;28;20203;-39
2023/01/13 04:34:47;;;;;;;6.03;2.57;;;9.90;99.90;;;;;;5012030;28;20238;-39
2023/01/13 04:37:12;;;;;;;4.27;1.87;;;10.00;99.90;;;;;;4994138;28;20211;-42
2023/01/13 04:39:39;;;;;;;3.73;1.67;;;10.00;99.90;;;;;;5018993;28;20194;-41
2023/01/13 04:42:06;;;;;;;9.07;3.23;;;10.00;99.90;;;;;;5011978;28;20186;-41
2023/01/13 04:44:34;;;;;;;3.20;1.90;;;9.90;99.90;;;;;;4993918;28;20187;-41
2023/01/13 04:47:04;;;;;;;6.20;2.23;;;10.00;99.90;;;;;;4993808;28;20194;-41
2023/01/13 04:49:30;;;;;;;5.63;2.73;;;10.00;99.90;;;;;;4993540;28;20218;-42
2023/01/13 04:51:56;;;;;;;6.87;2.57;;;9.90;99.90;;;;;;5016516;28;20175;-41
2023/01/13 04:54:22;;;;;;;6.90;3.33;;;9.90;99.90;;;;;;5004938;28;20300;-41
2023/01/13 04:56:48;;;;;;;4.67;2.70;;;9.90;99.90;;;;;;5014454;28;20174;-41
2023/01/13 04:59:14;;;;;;;2.80;1.30;;;9.90;99.90;;;;;;4992536;28;20205;-41
2023/01/13 05:01:40;;;;;;;2.80;1.43;;;10.00;99.90;;;;;;4991155;28;20214;-42
2023/01/13 05:04:07;;;;;;;3.03;1.60;;;10.00;99.90;;;;;;4994279;28;20203;-41
2023/01/13 05:06:32;;;;;;;0.77;0.70;;;9.90;99.90;;;;;;5009326;28;20176;-40
2023/01/13 05:08:58;;;;;;;1.37;1.10;;;9.90;99.90;;;;;;4993398;28;20191;-42
2023/01/13 05:17:01;;;;;;;3.70;1.83;;;9.90;99.90;;;;;;5011376;28;20179;-42
2023/01/13 05:19:33;;;;;;;0.90;0.77;;;10.00;99.90;;;;;;5009279;28;20182;-42
2023/01/13 05:27:30;;;;;;;2.57;1.27;;;10.00;99.90;;;;;;5030356;28;20269;-42
2023/01/13 05:29:56;;;;;;;2.40;0.90;;;10.00;99.90;;;;;;5014763;28;20225;-42
2023/01/13 05:32:22;;;;;;;1.63;1.00;;;10.00;99.90;;;;;;4993911;28;20323;-39
2023/01/13 05:34:48;;;;;;;2.90;1.00;;;10.00;99.90;;;;;;5010744;28;20215;-42
2023/01/13 05:37:14;;;;;;;1.70;1.17;;;10.00;99.90;;;;;;4992365;28;20172;-41
2023/01/13 05:45:10;;;;;;;1.23;0.70;;;10.00;99.90;;;;;;5006406;28;20185;-42
2023/01/13 05:47:36;;;;;;;0.77;0.63;;;10.00;99.90;;;;;;5010763;28;20253;-41
2023/01/13 05:50:02;;;;;;;1.57;0.83;;;9.90;99.90;;;;;;4993595;28;20207;-39
2023/01/13 05:52:28;;;;;;;1.37;0.70;;;10.00;99.90;;;;;;5001484;28;20269;-42
2023/01/13 05:54:54;;;;;;;1.20;0.60;;;10.00;99.90;;;;;;5016002;28;20212;-42
2023/01/13 05:57:20;;;;;;;0.53;0.50;;;10.00;99.90;;;;;;5011048;28;20259;-41
2023/01/13 05:59:45;;;;;;;1.20;0.40;;;10.00;99.90;;;;;;5011285;28;20211;-41
2023/01/13 06:02:11;;;;;;;2.30;0.60;;;10.00;99.90;;;;;;4993397;28;20668;-41
2023/01/13 06:04:37;;;;;;;2.83;0.90;;;10.00;99.90;;;;;;5010146;28;20178;-42
2023/01/13 06:07:03;;;;;;;0.93;0.80;;;10.00;99.90;;;;;;5009753;28;20203;-40
2023/01/13 06:09:28;;;;;;;2.57;0.90;;;10.00;99.90;;;;;;4993053;28;20183;-39
2023/01/13 06:11:54;;;;;;;1.57;1.00;;;10.00;99.90;;;;;;4992705;28;20186;-43
2023/01/13 06:14:20;;;;;;;1.77;1.00;;;10.00;99.90;;;;;;4999668;28;20199;-41
2023/01/13 06:16:46;;;;;;;2.20;1.20;;;10.00;99.90;;;;;;5009610;28;20267;-41
2023/01/13 06:19:12;;;;;;;1.93;1.30;;;9.90;99.90;;;;;;4993424;28;20267;-40
2023/01/13 06:21:40;;;;;;;1.03;0.60;;;9.90;99.90;;;;;;4995999;28;20218;-42
2023/01/13 06:24:07;;;;;;;0.97;0.70;;;9.90;99.90;;;;;;5020694;28;20286;-40
2023/01/13 06:26:40;;;;;;;2.27;0.90;;;9.90;99.90;;;;;;5023148;28;20179;-40
2023/01/13 06:29:08;;;;;;;1.20;0.80;;;9.90;99.90;;;;;;5010145;28;20219;-41
2023/01/13 06:31:38;;;;;;;0.77;0.60;;;9.90;99.90;;;;;;4994860;28;20187;-41
2023/01/13 06:34:10;;;;;;;0.53;0.50;;;9.90;99.90;;;;;;5004514;28;20214;-40
2023/01/13 06:36:46;;;;;;;0.40;0.40;;;9.90;99.90;;;;;;5002519;28;20220;-42
2023/01/13 06:39:17;;;;;;;1.20;0.60;;;9.90;99.90;;;;;;4994029;28;20174;-42
2023/01/13 06:44:31;;;;;;;1.27;0.60;;;9.80;99.90;;;;;;4985652;28;20196;-41
2023/01/13 06:46:56;;;;;;;0.60;0.60;;;9.80;99.90;;;;;;4989204;28;20277;-40
2023/01/13 06:49:22;;;;;;;0.77;0.60;;;9.80;99.90;;;;;;4996386;28;20186;-41
2023/01/13 06:51:48;;;;;;;1.00;0.70;;;9.80;99.90;;;;;;4992263;28;20214;-41
2023/01/13 06:54:14;;;;;;;1.10;0.67;;;9.80;99.90;;;;;;5020988;28;20210;-42
2023/01/13 06:56:39;;;;;;;1.43;0.87;;;9.70;99.90;;;;;;5013591;28;20210;-40
2023/01/13 06:59:05;;;;;;;1.00;0.57;;;9.80;99.90;;;;;;4997029;28;20267;-41
2023/01/13 07:01:31;;;;;;;1.33;0.70;;;9.80;99.90;;;;;;4997587;28;20190;-41
2023/01/13 07:03:57;;;;;;;1.23;0.70;;;9.80;99.90;;;;;;5012539;28;20325;-41
2023/01/13 07:06:23;;;;;;;0.43;0.43;;;9.80;99.90;;;;;;5011357;28;20180;-42
2023/01/13 07:08:49;;;;;;;2.70;0.60;;;9.80;99.90;;;;;;4994786;28;20549;-42
2023/01/13 07:11:15;;;;;;;1.97;1.00;;;9.70;99.90;;;;;;4994471;28;20190;-43
2023/01/13 07:16:26;;;;;;;6.10;3.30;;;9.70;99.90;;;;;;4994802;28;20179;-42
2023/01/13 07:18:52;;;;;;;9.07;3.37;;;9.70;99.90;;;;;;5010975;28;20186;-42
2023/01/13 07:21:18;;;;;;;1.63;1.00;;;9.60;99.90;;;;;;4979816;28;20187;-42
2023/01/13 07:23:46;;;;;;;0.87;0.67;;;9.70;99.90;;;;;;5007354;28;20226;-42
2023/01/13 07:26:13;;;;;;;0.90;0.60;;;9.70;99.90;;;;;;5034202;28;20187;-41
2023/01/13 07:28:39;;;;;;;0.77;0.50;;;9.70;99.90;;;;;;5032237;28;20181;-42
2023/01/13 07:31:11;;;;;;;1.13;0.57;;;9.70;99.90;;;;;;5033315;28;20191;-41
2023/01/13 07:33:37;;;;;;;1.53;0.50;;;9.70;99.90;;;;;;5015537;28;20297;-41
2023/01/13 07:36:04;;;;;;;1.37;0.53;;;9.70;99.90;;;;;;5015573;28;20269;-42
2023/01/13 07:38:32;;;;;;;1.50;0.80;;;9.70;99.90;;;;;;5031480;28;20357;-41
2023/01/13 07:43:30;;;;;;;0.70;0.70;;;9.70;99.90;;;;;;5030097;28;20716;-42
2023/01/13 07:43:44;;;;;;;0.70;0.60;;;9.60;99.90;;;;;;5012305;28;20252;-40
2023/01/13 07:46:09;;;;;;;0.40;0.40;;;9.70;99.90;;;;;;5031450;28;20190;-41
2023/01/13 07:48:35;;;;;;;0.60;0.60;;;9.70;99.90;;;;;;5029953;28;20175;-42
2023/01/13 07:51:06;;;;;;;1.13;0.70;;;9.70;99.90;;;;;;5004932;28;20232;-41
2023/01/13 07:53:33;;;;;;;1.43;0.70;;;9.70;99.90;;;;;;5001938;28;20250;-42
2023/01/13 07:56:00;;;;;;;1.03;0.80;;;9.70;99.90;;;;;;5032587;28;20210;-41
2023/01/13 07:58:27;;;;;;;1.70;0.97;;;9.70;99.90;;;;;;5031291;28;20240;-42
2023/01/13 08:00:54;;;;;;;0.80;0.70;;;9.70;99.90;;;;;;5032634;28;20183;-39
2023/01/13 08:03:21;;;;;;;1.40;0.90;;;9.70;99.90;;;;;;5031382;28;20206;-41
2023/01/13 08:05:47;;;;;;;0.97;0.80;;;9.70;99.90;;;;;;5032649;28;20194;-41
2023/01/13 08:08:14;;;;;;;0.87;0.60;;;9.70;99.90;;;;;;5032746;28;20181;-42
2023/01/13 08:10:40;;;;;;;1.57;0.80;;;9.70;99.90;;;;;;5031403;28;20182;-42
2023/01/13 08:13:19;;;;;;;1.17;0.70;;;9.70;99.90;;;;;;5014600;28;20205;-42
2023/01/13 08:15:48;;;;;;;2.07;1.03;;;9.70;99.90;;;;;;5014297;28;20178;-42
2023/01/13 08:18:14;;;;;;;2.93;1.33;;;9.80;99.90;;;;;;5032107;28;20246;-42
2023/01/13 08:20:40;;;;;;;1.17;0.80;;;9.70;99.90;;;;;;5013043;28;20190;-42
2023/01/13 08:23:06;;;;;;;0.63;0.53;;;9.70;99.90;;;;;;4986472;28;20204;-42
2023/01/13 08:25:32;;;;;;;1.13;0.70;;;9.70;99.90;;;;;;5011372;28;20186;-42
2023/01/13 08:28:00;;;;;;;2.50;0.70;;;9.60;99.90;;;;;;5014407;28;20233;-41
2023/01/13 08:30:27;;;;;;;1.93;0.90;;;9.60;99.90;;;;;;5031145;28;20209;-40
2023/01/13 08:32:53;;;;;;;1.10;1.00;;;9.50;99.90;;;;;;5030703;28;20195;-42
2023/01/13 08:35:19;;;;;;;2.23;1.10;;;9.50;99.90;;;;;;5030571;28;20206;-42
2023/01/13 08:37:46;;;;;;;2.03;1.20;;;9.40;99.90;;;;;;5032160;28;20264;-42
2023/01/13 08:40:14;;;;;;;0.93;0.80;;;9.50;99.90;;;;;;5031578;28;20175;-42
2023/01/13 08:42:40;;;;;;;0.83;0.73;;;9.50;99.90;;;;;;5030720;28;20203;-40
2023/01/13 08:45:07;;;;;;;2.23;1.10;;;9.50;99.90;;;;;;5030591;28;20186;-42
2023/01/13 08:47:33;;;;;;;1.10;1.00;;;9.50;99.90;;;;;;5030376;28;20190;-42
2023/01/13 08:49:58;;;;;;;1.00;0.80;;;9.40;99.90;;;;;;5013497;28;20183;-42
2023/01/13 08:52:25;;;;;;;1.37;0.90;;;9.40;99.90;;;;;;5023382;28;20217;-42
2023/01/13 08:54:51;;;;;;;1.67;1.10;;;9.30;99.90;;;;;;5022981;28;20860;-42
2023/01/13 08:57:19;;;;;;;1.00;0.80;;;9.30;99.90;;;;;;5030718;28;20174;-40
2023/01/13 08:59:45;;;;;;;13.37;7.90;;;9.30;99.90;;;;;;5013459;28;20182;-42
2023/01/13 09:02:16;;;;;;;1.47;1.07;;;9.30;99.90;;;;;;5013785;28;20170;-42
2023/01/13 09:04:43;;;;;;;0.70;0.70;;;9.40;99.90;;;;;;5031468;28;20186;-42
2023/01/13 09:07:09;;;;;;;0.60;0.60;;;9.30;99.90;;;;;;5031712;28;20209;-41
2023/01/13 09:09:35;;;;;;;0.73;0.50;;;9.30;99.90;;;;;;5013481;28;20187;-42
2023/01/13 09:14:46;;;;;;;2.57;1.10;;;9.30;99.90;;;;;;5030135;28;20198;-41
2023/01/13 09:17:13;;;;;;;3.17;1.80;;;9.40;99.90;;;;;;5030015;28;20214;-42
2023/01/13 09:19:39;;;;;;;2.63;1.90;;;9.40;99.90;;;;;;5030057;28;20183;-42
2023/01/13 09:22:04;;;;;;;4.47;2.70;;;9.40;99.90;;;;;;5023669;28;20190;-40
2023/01/13 09:24:30;;;;;;;4.83;2.50;;;9.40;99.90;;;;;;5021846;28;20182;-41
2023/01/13 09:26:56;;;;;;;3.37;2.20;;;9.40;99.90;;;;;;5030076;28;20202;-42
2023/01/13 09:29:23;;;;;;;1.17;0.90;;;9.40;99.90;;;;;;5029718;28;20183;-42
2023/01/13 09:31:49;;;;;;;1.23;1.13;;;9.40;99.90;;;;;;5013296;28;20178;-42
2023/01/13 09:37:10;;;;;;;0.70;0.70;;;9.50;99.90;;;;;;4983349;28;20214;-40
2023/01/13 09:39:36;;;;;;;0.60;0.60;;;9.60;99.90;;;;;;5013119;28;20219;-42
2023/01/13 09:45:27;;;;;;;1.33;0.50;;;9.60;99.90;;;;;;5007772;28;20183;-41
2023/01/13 09:47:55;;;;;;;0.30;0.30;;;9.60;99.90;;;;;;5029741;28;20268;-41
2023/01/13 09:50:30;;;;;;;1.03;0.50;;;9.60;99.90;;;;;;5030919;28;20269;-42
2023/01/13 09:52:56;;;;;;;0.80;0.53;;;9.60;99.90;;;;;;4994997;28;20219;-42
2023/01/13 09:55:32;;;;;;;0.60;0.60;;;9.50;99.90;;;;;;5028136;28;20202;-42
2023/01/13 09:58:00;;;;;;;1.73;0.70;;;9.30;99.90;;;;;;5013312;28;20292;-42
2023/01/13 10:00:34;;;;;;;0.40;0.40;;;9.20;99.90;;;;;;5030806;28;20185;-42
2023/01/13 10:03:27;;;;;;;0.40;0.40;;;9.10;99.90;;;;;;5031010;28;20240;-42
2023/01/13 10:06:07;;;;;;;0.70;0.57;;;9.00;99.90;;;;;;5013534;28;20178;-40
2023/01/13 10:08:41;;;;;;;0.50;0.50;;;9.00;99.90;;;;;;5035290;28;20198;-42
2023/01/13 10:14:33;;;;;;;1.30;0.70;;;8.90;99.90;;;;;;5034674;28;20237;-42
2023/01/13 10:17:17;;;;;;;1.17;0.60;;;8.90;99.90;;;;;;5033439;28;20174;-42
2023/01/13 10:20:11;;;;;;;0.60;0.60;;;9.00;99.90;;;;;;5033073;28;20217;-42
2023/01/13 10:22:47;;;;;;;1.23;0.40;;;9.00;99.90;;;;;;5001299;28;20233;-42
2023/01/13 10:25:23;;;;;;;0.40;0.40;;;9.00;99.90;;;;;;5030267;28;20188;-42
2023/01/13 10:27:52;;;;;;;0.57;0.57;;;9.00;99.90;;;;;;5034825;28;20186;-42
2023/01/13 10:30:38;;;;;;;3.00;0.80;;;9.00;99.90;;;;;;5033164;28;20206;-42
2023/01/13 10:33:20;;;;;;;0.80;0.80;;;9.10;99.90;;;;;;5012882;28;20294;-42
2023/01/13 10:35:50;;;;;;;0.43;0.43;;;9.20;99.90;;;;;;5011581;28;20211;-42
2023/01/13 10:38:23;;;;;;;1.53;1.00;;;9.30;99.90;;;;;;4998474;28;20172;-40
2023/01/13 10:41:00;;;;;;;1.53;0.70;;;9.40;99.90;;;;;;4986415;28;20195;-42
2023/01/13 10:43:28;;;;;;;0.73;0.50;;;9.60;99.90;;;;;;5008558;28;20204;-42
2023/01/13 10:45:57;;;;;;;1.30;0.50;;;9.80;99.90;;;;;;4996324;28;20184;-42
2023/01/13 10:48:38;;;;;;;0.80;0.50;;;9.90;99.90;;;;;;4996683;28;20183;-42
2023/01/13 10:51:18;;;;;;;0.80;0.60;;;10.00;99.90;;;;;;5011795;28;20211;-42
2023/01/13 10:53:54;;;;;;;0.90;0.60;;;10.00;99.90;;;;;;4997323;28;20288;-42
2023/01/13 10:56:21;;;;;;;0.83;0.60;;;10.10;99.90;;;;;;5032598;28;20187;-42
2023/01/13 10:58:47;;;;;;;0.47;0.43;;;10.10;99.90;;;;;;5022817;28;20179;-42
2023/01/13 11:01:25;;;;;;;2.00;0.57;;;10.10;99.90;;;;;;4996745;28;20275;-42
2023/01/13 11:03:53;;;;;;;1.53;0.40;;;10.20;99.90;;;;;;5006426;28;20195;-42
2023/01/13 11:06:36;;;;;;;2.40;1.10;;;10.20;99.90;;;;;;5014570;28;20233;-39
2023/01/13 11:09:02;;;;;;;2.20;1.50;;;9.90;99.90;;;;;;5012997;28;20191;-44
2023/01/13 11:11:44;;;;;;;1.63;0.90;;;9.50;99.90;;;;;;5013539;28;20183;-44
2023/01/13 11:14:35;;;;;;;0.30;0.30;;;9.00;99.90;;;;;;4976724;28;20223;-44
2023/01/13 11:17:40;;;;;;;4.50;1.07;;;8.50;99.90;;;;;;4993692;28;20263;-42
2023/01/13 11:20:29;;;;;;;2.47;1.80;;;8.30;99.90;;;;;;5013216;28;20179;-44
2023/01/13 11:23:00;;;;;;;1.10;0.80;;;8.10;99.90;;;;;;5004075;28;20807;-43
2023/01/13 11:25:41;;;;;;;4.97;3.00;;;8.00;99.90;;;;;;5029768;28;20206;-43
2023/01/13 11:28:29;;;;;;;3.00;1.47;;;7.90;99.90;;;;;;5032251;28;20569;-43
2023/01/13 11:31:06;;;;;;;0.47;0.43;;;7.90;99.90;;;;;;5000056;28;20191;-44
2023/01/13 11:34:08;;;;;;;1.27;0.60;;;7.80;99.90;;;;;;5012314;28;20206;-42
2023/01/13 11:36:41;;;;;;;0.83;0.50;;;7.80;99.90;;;;;;4958172;28;20183;-43
2023/01/13 11:39:19;;;;;;;0.53;0.47;;;7.60;99.90;;;;;;5013498;28;20172;-44
2023/01/13 11:44:53;;;;;;;1.33;0.70;;;7.40;99.90;;;;;;5011441;28;20184;-41
2023/01/13 11:47:23;;;;;;;4.37;2.63;;;7.30;99.90;;;;;;5012073;28;20183;-43
2023/01/13 11:49:50;;;;;;;1.97;1.50;;;7.30;99.90;;;;;;5013025;28;20183;-43
2023/01/13 11:52:42;;;;;;;1.73;0.90;;;7.20;99.90;;;;;;5003013;28;20297;-43
2023/01/13 11:55:36;;;;;;;1.30;0.60;;;7.20;99.90;;;;;;5021952;28;20295;-42
2023/01/13 11:58:12;;;;;;;0.50;0.50;;;7.10;99.90;;;;;;5032925;28;20186;-44
2023/01/13 12:00:56;;;;;;;1.57;0.70;;;7.00;99.90;;;;;;5014917;28;20197;-43
2023/01/13 12:03:39;;;;;;;0.57;0.57;;;7.10;99.90;;;;;;5021294;28;20214;-41
2023/01/13 12:06:37;;;;;;;1.43;0.53;;;7.10;99.90;;;;;;5030535;28;20182;-43
2023/01/13 12:09:30;;;;;;;2.50;0.47;;;7.20;99.90;;;;;;5007349;28;20186;-41
2023/01/13 12:15:11;;;;;;;1.43;0.80;;;7.30;99.90;;;;;;5032422;28;20293;-43
2023/01/13 12:18:06;;;;;;;1.43;0.80;;;7.40;99.90;;;;;;5031442;28;20192;-44
2023/01/13 12:20:51;;;;;;;0.63;0.60;;;7.50;99.90;;;;;;5009272;28;20171;-44
2023/01/13 12:23:29;;;;;;;1.20;0.80;;;7.70;99.90;;;;;;5000190;28;20323;-44
2023/01/13 12:26:05;;;;;;;2.30;0.80;;;7.80;99.90;;;;;;5008956;28;20239;-41
2023/01/13 12:28:56;;;;;;;1.00;0.73;;;8.00;99.90;;;;;;5010360;28;20266;-44
2023/01/13 12:31:23;;;;;;;1.97;0.60;;;8.20;99.90;;;;;;5010556;28;20218;-43
2023/01/13 12:34:20;;;;;;;3.00;0.87;;;8.30;99.90;;;;;;4994524;28;20289;-44
2023/01/13 12:37:19;;;;;;;1.77;0.80;;;8.50;99.90;;;;;;5011900;28;20279;-42
2023/01/13 12:39:45;;;;;;;3.30;0.90;;;8.40;99.90;;;;;;4993925;28;20171;-44
2023/01/13 12:45:30;;;;;;;8.27;1.77;;;8.60;99.90;;;;;;4992291;28;20190;-42
2023/01/13 12:47:56;;;;;;;5.53;2.30;;;8.70;99.90;;;;;;4983675;28;20186;-44
2023/01/13 12:50:22;;;;;;;4.67;1.60;;;8.80;99.90;;;;;;5004384;28;20175;-44
2023/01/13 12:52:56;;;;;;;4.50;1.00;;;8.90;99.90;;;;;;4999851;28;20688;-43
2023/01/13 12:55:26;;;;;;;4.13;1.17;;;9.00;99.90;;;;;;5009569;28;20213;-44
2023/01/13 12:57:57;;;;;;;2.90;1.33;;;9.00;99.90;;;;;;4993476;28;20195;-42
2023/01/13 13:00:50;;;;;;;11.33;4.57;;;9.00;99.90;;;;;;4985735;28;20249;-44
2023/01/13 13:03:32;;;;;;;8.03;3.33;;;8.90;99.90;;;;;;4991375;28;20211;-43
2023/01/13 13:06:06;;;;;;;4.07;1.57;;;9.00;99.90;;;;;;4985296;28;20179;-44
2023/01/13 13:08:35;;;;;;;4.83;1.40;;;9.10;99.90;;;;;;4987159;28;20183;-44
2023/01/13 13:13:16;;;;;;;5.07;1.20;;;9.20;99.90;;;;;;5003245;28;20609;-43
2023/01/13 13:14:02;;;;;;;6.07;1.17;;;9.20;99.90;;;;;;4984781;28;20253;-44
2023/01/13 13:16:28;;;;;;;5.10;1.43;;;9.30;99.90;;;;;;4985043;28;20263;-39
2023/01/13 13:19:17;;;;;;;3.93;1.27;;;9.30;99.90;;;;;;4999984;28;20648;-43
2023/01/13 13:22:25;;;;;;;3.93;1.20;;;9.40;99.90;;;;;;5008353;28;20207;-44
2023/01/13 13:24:51;;;;;;;2.87;1.20;;;9.50;99.90;;;;;;4993516;28;20186;-43
2023/01/13 13:27:26;;;;;;;3.63;1.77;;;9.60;99.90;;;;;;4989301;28;20190;-44
2023/01/13 13:30:22;;;;;;;3.07;1.60;;;9.60;99.90;;;;;;5000085;28;20210;-44
2023/01/13 13:33:03;;;;;;;2.80;1.10;;;9.70;99.90;;;;;;4986406;28;20676;-44
2023/01/13 13:36:03;;;;;;;4.80;1.40;;;9.50;99.90;;;;;;5002750;28;20212;-43
2023/01/13 13:48:22;;;;;;;6.67;2.00;;;9.00;99.90;;;;;;5004719;28;20176;-43
2023/01/13 13:50:55;;;;;;;5.50;1.70;;;9.10;99.90;;;;;;5001839;28;20189;-43
2023/01/13 13:53:22;;;;;;;5.30;1.30;;;9.10;99.90;;;;;;5014423;28;20692;-44
2023/01/13 13:55:58;;;;;;;4.83;1.60;;;9.20;99.90;;;;;;5002603;28;20236;-43
2023/01/13 13:58:27;;;;;;;4.37;1.70;;;9.20;99.90;;;;;;4990853;28;20189;-43
2023/01/13 14:00:53;;;;;;;5.60;1.40;;;9.20;99.90;;;;;;5010805;28;20175;-42
2023/01/13 14:03:33;;;;;;;4.83;1.40;;;9.20;99.90;;;;;;5015185;28;20209;-41
2023/01/13 14:06:01;;;;;;;5.40;1.60;;;9.20;99.90;;;;;;5021828;28;20170;-41
2023/01/13 14:08:30;;;;;;;5.30;1.77;;;9.20;99.90;;;;;;5026112;28;20187;-42
2023/01/13 14:10:56;;;;;;;6.80;1.90;;;9.10;99.90;;;;;;5019246;28;20179;-40
2023/01/13 14:13:23;;;;;;;3.70;1.10;;;9.00;99.90;;;;;;5003042;28;20428;-42
2023/01/13 14:16:00;;;;;;;4.10;1.37;;;9.00;99.90;;;;;;5014170;28;20226;-42
2023/01/13 14:18:31;;;;;;;4.13;1.30;;;9.10;99.90;;;;;;4979664;28;20192;-40
2023/01/13 14:21:04;;;;;;;8.47;1.30;;;9.10;99.90;;;;;;4998187;28;20183;-41
2023/01/13 14:23:32;;;;;;;6.67;1.90;;;9.10;99.90;;;;;;5014561;28;20703;-41
2023/01/13 14:26:07;;;;;;;1.50;0.77;;;9.20;99.90;;;;;;5004726;28;20192;-42
2023/01/13 14:28:36;;;;;;;4.97;1.47;;;9.30;99.90;;;;;;5008901;28;20606;-42